Time;durP1;ratioP1;P1;durP2;ratioP2;P2;SDS_P1;SDS_P2;PMS_P1;PMS_P2;Temp;Humidity;BMP_temperature;BMP_pressure;BME280_temperature;BME280_humidity;BME280_pressure;Samples;Min_cycle;Max_cycle;Signal;HPM_P1;HPM_P2
2023/10/30 04:07:13;;;;;;;0.30;0.30;;;12.20;99.90;;;;;;5002969;28;20497;-60
2023/10/30 04:09:39;;;;;;;0.30;0.30;;;12.20;99.90;;;;;;4998184;28;20419;-60
2023/10/30 04:12:05;;;;;;;0.30;0.20;;;12.20;99.90;;;;;;4994373;28;20188;-60
2023/10/30 04:14:31;;;;;;;0.30;0.20;;;12.20;99.90;;;;;;4993875;28;20184;-61
2023/10/30 04:17:02;;;;;;;0.30;0.20;;;12.20;99.90;;;;;;4979709;28;20439;-59
2023/10/30 04:19:28;;;;;;;0.30;0.30;;;12.20;99.90;;;;;;4994116;28;20183;-61
2023/10/30 04:21:54;;;;;;;0.30;0.30;;;12.20;99.90;;;;;;4994784;28;20431;-60
2023/10/30 04:24:19;;;;;;;0.30;0.20;;;12.20;99.90;;;;;;4993948;28;20179;-61
2023/10/30 04:26:45;;;;;;;0.30;0.30;;;12.10;99.90;;;;;;4991048;28;20228;-61
2023/10/30 04:29:10;;;;;;;0.30;0.20;;;12.10;99.90;;;;;;4981131;28;20180;-60
2023/10/30 04:31:36;;;;;;;0.30;0.30;;;12.00;99.90;;;;;;4994395;28;20227;-60
2023/10/30 04:34:02;;;;;;;0.40;0.40;;;11.90;99.90;;;;;;4993650;28;20263;-61
2023/10/30 04:36:27;;;;;;;0.30;0.20;;;11.90;99.90;;;;;;4992286;28;20197;-62
2023/10/30 04:38:53;;;;;;;0.30;0.30;;;11.80;99.90;;;;;;4957338;28;20212;-61
2023/10/30 04:41:18;;;;;;;0.30;0.30;;;11.80;99.90;;;;;;4974601;28;20225;-61
2023/10/30 04:43:44;;;;;;;0.30;0.30;;;11.80;99.90;;;;;;4974479;28;20188;-62
2023/10/30 04:46:10;;;;;;;0.30;0.20;;;11.70;99.90;;;;;;4974472;28;20209;-61
2023/10/30 04:48:35;;;;;;;0.30;0.30;;;11.70;99.90;;;;;;4989530;28;20190;-61
2023/10/30 04:51:01;;;;;;;0.30;0.30;;;11.70;99.90;;;;;;4993768;28;20298;-60
2023/10/30 04:53:29;;;;;;;0.57;0.57;;;11.70;99.90;;;;;;4993873;28;20177;-60
2023/10/30 04:55:56;;;;;;;0.30;0.30;;;11.70;99.90;;;;;;4991833;28;20205;-62
2023/10/30 04:58:22;;;;;;;0.30;0.20;;;11.70;99.90;;;;;;4993984;28;20413;-61
2023/10/30 05:00:48;;;;;;;0.30;0.30;;;11.70;99.90;;;;;;4993984;28;20185;-61
2023/10/30 05:03:14;;;;;;;0.30;0.30;;;11.70;99.90;;;;;;4993968;28;20444;-61
2023/10/30 05:05:40;;;;;;;0.30;0.30;;;11.70;99.90;;;;;;4979692;28;20229;-60
2023/10/30 05:08:05;;;;;;;0.30;0.30;;;11.70;99.90;;;;;;4990930;28;20436;-60
2023/10/30 05:10:31;;;;;;;0.30;0.20;;;11.70;99.90;;;;;;4993930;28;20940;-60
2023/10/30 05:12:57;;;;;;;0.30;0.30;;;11.70;99.90;;;;;;4976413;28;20653;-60
2023/10/30 05:15:23;;;;;;;0.30;0.20;;;11.70;99.90;;;;;;4982182;28;20221;-60
2023/10/30 05:17:49;;;;;;;0.30;0.20;;;11.70;99.90;;;;;;4974063;28;20215;-60
2023/10/30 05:20:15;;;;;;;0.30;0.20;;;11.70;99.90;;;;;;4974398;28;20457;-61
2023/10/30 05:22:42;;;;;;;0.50;0.50;;;11.70;99.90;;;;;;4956985;28;20182;-60
2023/10/30 05:25:08;;;;;;;0.30;0.30;;;11.70;99.90;;;;;;4964694;28;20467;-60
2023/10/30 05:27:34;;;;;;;0.30;0.30;;;11.70;99.90;;;;;;4976243;28;20941;-61
2023/10/30 05:30:00;;;;;;;0.30;0.30;;;11.70;99.90;;;;;;4976382;28;20420;-61
2023/10/30 05:32:26;;;;;;;0.30;0.30;;;11.70;99.90;;;;;;4993629;28;20413;-60
2023/10/30 05:34:55;;;;;;;0.30;0.30;;;11.70;99.90;;;;;;4990225;28;20468;-59
2023/10/30 05:37:21;;;;;;;0.30;0.30;;;11.70;99.90;;;;;;4977812;28;20173;-60
2023/10/30 05:39:48;;;;;;;0.30;0.30;;;11.60;99.90;;;;;;4977693;28;20483;-61
2023/10/30 05:42:14;;;;;;;0.30;0.20;;;11.60;99.90;;;;;;4960164;28;20445;-60
2023/10/30 05:44:40;;;;;;;0.30;0.20;;;11.50;99.90;;;;;;4979967;28;20194;-60
2023/10/30 05:47:06;;;;;;;0.30;0.30;;;11.50;99.90;;;;;;4997022;28;20205;-60
2023/10/30 05:49:31;;;;;;;0.30;0.20;;;11.40;99.90;;;;;;4996927;28;20198;-61
2023/10/30 05:51:57;;;;;;;0.40;0.40;;;11.40;99.90;;;;;;4997081;28;20416;-60
2023/10/30 05:54:22;;;;;;;0.30;0.30;;;11.30;99.90;;;;;;4995630;28;20177;-60
2023/10/30 05:56:48;;;;;;;0.30;0.30;;;11.30;99.90;;;;;;4977491;28;20233;-60
2023/10/30 05:59:15;;;;;;;0.30;0.30;;;11.20;99.90;;;;;;4977510;28;20271;-61
2023/10/30 06:01:41;;;;;;;0.30;0.27;;;11.20;99.90;;;;;;4977346;28;20768;-60
2023/10/30 06:04:07;;;;;;;0.30;0.30;;;11.20;99.90;;;;;;4976992;28;20487;-61
2023/10/30 06:06:32;;;;;;;0.30;0.30;;;11.10;99.90;;;;;;4994427;28;20471;-61
2023/10/30 06:08:58;;;;;;;0.30;0.20;;;11.10;99.90;;;;;;4996721;28;20233;-60
2023/10/30 06:11:24;;;;;;;0.40;0.40;;;11.10;99.90;;;;;;4996691;28;20181;-61
2023/10/30 06:13:49;;;;;;;0.30;0.20;;;11.10;99.90;;;;;;4996421;28;20534;-61
2023/10/30 06:16:18;;;;;;;0.30;0.30;;;11.00;99.90;;;;;;4980818;28;20580;-61
2023/10/30 06:18:45;;;;;;;0.40;0.40;;;11.00;99.90;;;;;;4989769;28;20799;-61
2023/10/30 06:21:17;;;;;;;0.30;0.20;;;10.90;99.90;;;;;;4996486;28;20416;-62
2023/10/30 06:23:44;;;;;;;0.30;0.20;;;10.90;99.90;;;;;;4996428;28;20204;-61
2023/10/30 06:26:13;;;;;;;0.30;0.30;;;10.90;99.90;;;;;;4981511;28;20533;-62
2023/10/30 06:28:40;;;;;;;0.30;0.28;;;10.90;99.90;;;;;;4976805;28;20400;-61
2023/10/30 06:31:16;;;;;;;0.30;0.30;;;10.90;99.90;;;;;;4977700;28;20192;-60
2023/10/30 06:33:43;;;;;;;0.30;0.20;;;10.80;99.90;;;;;;4959382;28;20269;-62
2023/10/30 06:36:09;;;;;;;0.30;0.20;;;10.80;99.90;;;;;;4976687;28;20206;-61
2023/10/30 06:38:36;;;;;;;0.30;0.30;;;10.80;99.90;;;;;;4976747;28;20185;-60
2023/10/30 06:41:05;;;;;;;0.30;0.28;;;10.80;99.90;;;;;;4991563;28;20234;-60
2023/10/30 06:43:34;;;;;;;0.30;0.30;;;10.80;99.90;;;;;;4995993;28;20176;-61
2023/10/30 06:46:00;;;;;;;0.30;0.20;;;10.90;99.90;;;;;;4994322;28;20218;-61
2023/10/30 06:48:26;;;;;;;0.30;0.20;;;10.90;99.90;;;;;;4995794;28;20187;-60
2023/10/30 06:50:52;;;;;;;0.30;0.30;;;10.90;99.90;;;;;;4982334;28;20282;-61
2023/10/30 06:53:17;;;;;;;0.30;0.30;;;10.90;99.90;;;;;;4976563;28;20178;-62
2023/10/30 06:55:43;;;;;;;0.30;0.30;;;11.00;99.90;;;;;;4975752;28;20280;-62
2023/10/30 06:58:09;;;;;;;0.30;0.20;;;10.90;99.90;;;;;;4976637;28;20268;-61
2023/10/30 07:00:34;;;;;;;0.30;0.30;;;11.00;99.90;;;;;;4984830;28;20189;-62
2023/10/30 07:03:00;;;;;;;0.30;0.30;;;11.00;99.90;;;;;;4985780;28;20187;-62
2023/10/30 07:05:26;;;;;;;0.30;0.20;;;11.10;99.90;;;;;;4995049;28;20219;-62
2023/10/30 07:07:51;;;;;;;0.30;0.30;;;11.20;99.90;;;;;;4995476;28;20659;-62
2023/10/30 07:10:18;;;;;;;0.30;0.30;;;11.30;99.90;;;;;;4993425;28;20725;-62
2023/10/30 07:12:43;;;;;;;0.30;0.27;;;11.40;99.90;;;;;;4995208;28;20511;-61
2023/10/30 07:15:10;;;;;;;0.30;0.30;;;11.50;99.90;;;;;;4994950;28;20246;-61
2023/10/30 07:17:36;;;;;;;0.30;0.30;;;11.60;99.90;;;;;;4995245;28;20197;-61
2023/10/30 07:20:03;;;;;;;0.37;0.37;;;11.70;99.90;;;;;;4989856;28;20429;-60
2023/10/30 07:22:29;;;;;;;0.30;0.30;;;11.80;99.90;;;;;;4975734;28;20245;-61
2023/10/30 07:24:56;;;;;;;0.30;0.30;;;11.90;99.90;;;;;;4975076;28;20436;-62
2023/10/30 07:27:22;;;;;;;0.30;0.30;;;12.00;99.90;;;;;;4975689;28;20423;-62
2023/10/30 07:29:48;;;;;;;0.30;0.20;;;12.30;99.90;;;;;;4977148;28;20503;-61
2023/10/30 07:32:14;;;;;;;0.30;0.20;;;12.50;99.90;;;;;;4995151;28;20426;-62
2023/10/30 07:34:42;;;;;;;0.30;0.20;;;12.90;99.90;;;;;;4994582;28;20410;-62
2023/10/30 07:37:08;;;;;;;0.30;0.30;;;13.20;99.90;;;;;;4994916;28;20646;-61
2023/10/30 07:39:33;;;;;;;0.30;0.30;;;13.60;99.90;;;;;;4994982;28;20414;-62
2023/10/30 07:41:59;;;;;;;0.30;0.20;;;14.10;99.90;;;;;;4959254;28;20250;-61
2023/10/30 07:44:25;;;;;;;0.30;0.30;;;14.80;99.90;;;;;;4975343;28;20548;-62
2023/10/30 07:46:50;;;;;;;0.30;0.20;;;15.40;99.90;;;;;;4975031;28;20214;-61
2023/10/30 07:49:16;;;;;;;0.30;0.20;;;15.80;99.90;;;;;;4982341;28;20195;-62
2023/10/30 07:51:41;;;;;;;0.30;0.20;;;16.20;99.90;;;;;;4994707;28;20175;-62
2023/10/30 07:54:07;;;;;;;0.30;0.30;;;16.40;99.90;;;;;;4994219;28;20298;-61
2023/10/30 07:56:33;;;;;;;0.30;0.30;;;16.70;99.90;;;;;;4976931;28;20679;-62
2023/10/30 07:58:59;;;;;;;0.30;0.20;;;17.10;99.90;;;;;;4993218;28;20658;-62
2023/10/30 08:01:25;;;;;;;0.30;0.20;;;17.50;99.90;;;;;;4994513;28;20196;-62
2023/10/30 08:03:50;;;;;;;0.50;0.37;;;18.00;99.90;;;;;;4994393;28;20410;-61
2023/10/30 08:06:16;;;;;;;0.30;0.20;;;18.30;99.90;;;;;;4994382;28;20983;-61
2023/10/30 08:08:42;;;;;;;0.30;0.30;;;18.60;99.90;;;;;;4994586;28;20180;-62
2023/10/30 08:11:09;;;;;;;0.30;0.20;;;18.90;99.90;;;;;;4988013;28;20714;-63
2023/10/30 08:13:35;;;;;;;0.30;0.20;;;19.00;99.90;;;;;;4975013;28;20212;-61
2023/10/30 08:16:01;;;;;;;0.50;0.47;;;19.10;99.90;;;;;;4974567;28;20447;-61
2023/10/30 08:18:27;;;;;;;0.30;0.30;;;19.20;99.90;;;;;;4975157;28;20418;-59
2023/10/30 08:20:53;;;;;;;0.30;0.30;;;19.30;99.90;;;;;;4990633;28;20321;-60
2023/10/30 08:23:18;;;;;;;0.73;0.40;;;19.50;99.90;;;;;;4994329;28;20454;-60
2023/10/30 08:25:45;;;;;;;0.30;0.30;;;19.80;99.90;;;;;;4993766;28;20210;-61
2023/10/30 08:28:11;;;;;;;0.30;0.20;;;20.10;99.90;;;;;;4976616;28;20167;-61
2023/10/30 08:30:37;;;;;;;0.40;0.20;;;20.40;99.90;;;;;;4980319;28;20752;-60
2023/10/30 08:33:05;;;;;;;0.40;0.40;;;20.70;99.90;;;;;;4974814;28;20185;-62
2023/10/30 08:35:32;;;;;;;0.30;0.30;;;20.90;99.90;;;;;;4974262;28;20215;-60
2023/10/30 08:37:58;;;;;;;0.50;0.40;;;21.30;99.90;;;;;;4974682;28;20424;-61
2023/10/30 08:40:24;;;;;;;0.30;0.30;;;21.50;99.90;;;;;;4985885;28;20419;-61
2023/10/30 08:42:50;;;;;;;0.30;0.30;;;21.60;99.90;;;;;;4993862;28;20465;-60
2023/10/30 08:45:16;;;;;;;0.30;0.30;;;21.60;99.90;;;;;;4993638;28;20294;-60
2023/10/30 08:47:41;;;;;;;0.30;0.27;;;21.50;99.90;;;;;;4994057;28;20261;-63
2023/10/30 08:50:08;;;;;;;0.30;0.30;;;21.50;99.90;;;;;;4993192;28;20187;-61
2023/10/30 08:52:34;;;;;;;0.70;0.70;;;21.70;99.90;;;;;;4994079;28;20176;-60
2023/10/30 08:55:00;;;;;;;0.30;0.20;;;22.00;99.90;;;;;;4993463;28;20498;-61
2023/10/30 08:57:25;;;;;;;0.30;0.30;;;22.30;99.90;;;;;;4993899;28;20950;-61
2023/10/30 08:59:51;;;;;;;0.30;0.27;;;22.60;99.90;;;;;;4987069;28;20176;-62
2023/10/30 09:02:17;;;;;;;0.30;0.20;;;22.90;99.90;;;;;;4974425;28;20227;-59
2023/10/30 09:04:42;;;;;;;0.30;0.30;;;23.30;99.90;;;;;;4973878;28;20168;-61
2023/10/30 09:07:08;;;;;;;0.53;0.53;;;23.70;99.90;;;;;;4974270;28;20690;-59
2023/10/30 09:09:34;;;;;;;1.03;0.40;;;24.10;99.40;;;;;;4977710;28;20180;-60
2023/10/30 09:12:00;;;;;;;0.30;0.30;;;24.40;97.60;;;;;;4978397;28;20377;-60
2023/10/30 09:14:25;;;;;;;0.40;0.33;;;24.60;96.70;;;;;;4977874;28;20603;-61
2023/10/30 09:16:51;;;;;;;0.30;0.30;;;24.40;95.80;;;;;;4978359;28;20192;-61
2023/10/30 09:19:17;;;;;;;0.30;0.30;;;24.00;96.50;;;;;;4980043;28;20230;-60
2023/10/30 09:21:43;;;;;;;0.30;0.30;;;23.70;96.30;;;;;;4998289;28;20414;-60
2023/10/30 09:24:08;;;;;;;0.30;0.30;;;23.60;97.00;;;;;;4997778;28;20251;-61
2023/10/30 09:26:34;;;;;;;0.50;0.50;;;23.50;97.10;;;;;;4997789;28;20242;-60
2023/10/30 09:29:00;;;;;;;0.30;0.27;;;23.20;97.60;;;;;;4980010;28;20266;-60
2023/10/30 09:31:30;;;;;;;0.70;0.60;;;23.10;98.40;;;;;;4979186;28;20179;-60
2023/10/30 09:33:58;;;;;;;0.30;0.30;;;23.10;97.70;;;;;;4960904;28;20275;-59
2023/10/30 09:36:24;;;;;;;0.30;0.30;;;23.00;98.30;;;;;;4949511;28;21089;-60
2023/10/30 09:38:50;;;;;;;0.40;0.40;;;23.00;98.50;;;;;;4977758;28;20389;-58
2023/10/30 09:41:18;;;;;;;0.30;0.27;;;22.70;97.60;;;;;;4978025;28;20171;-60
2023/10/30 09:43:54;;;;;;;0.30;0.20;;;22.40;97.70;;;;;;4977941;28;20206;-60
2023/10/30 09:46:25;;;;;;;0.30;0.20;;;22.20;97.80;;;;;;4984083;28;20457;-59
2023/10/30 09:48:52;;;;;;;0.30;0.20;;;21.80;98.40;;;;;;4997331;28;20476;-59
2023/10/30 09:51:20;;;;;;;0.40;0.40;;;21.40;98.60;;;;;;4997357;28;20424;-59
2023/10/30 09:53:46;;;;;;;0.30;0.20;;;21.10;99.10;;;;;;4996720;28;20422;-60
2023/10/30 09:56:15;;;;;;;0.30;0.20;;;20.70;99.30;;;;;;4993177;28;20452;-59
2023/10/30 09:58:41;;;;;;;0.30;0.20;;;20.40;99.90;;;;;;4977757;28;20385;-60
2023/10/30 10:01:06;;;;;;;0.30;0.30;;;20.20;99.90;;;;;;4977569;28;20415;-60
2023/10/30 10:03:32;;;;;;;0.30;0.30;;;19.90;99.90;;;;;;4977959;28;20180;-60
2023/10/30 10:05:59;;;;;;;0.37;0.37;;;19.60;99.90;;;;;;4976924;28;20232;-59
2023/10/30 10:08:26;;;;;;;0.30;0.30;;;19.50;99.90;;;;;;4977182;28;20199;-60
2023/10/30 10:11:00;;;;;;;0.33;0.33;;;19.40;99.90;;;;;;4977123;28;20415;-59
2023/10/30 10:13:31;;;;;;;0.57;0.40;;;19.40;99.90;;;;;;4976910;28;20384;-60
2023/10/30 10:15:57;;;;;;;0.30;0.30;;;19.30;99.90;;;;;;4988570;28;20501;-60
2023/10/30 10:18:31;;;;;;;0.30;0.30;;;19.30;99.90;;;;;;4996529;28;20385;-59
2023/10/30 10:21:08;;;;;;;0.30;0.30;;;19.30;99.90;;;;;;4996548;28;20537;-60
2023/10/30 10:23:36;;;;;;;0.30;0.27;;;19.50;99.90;;;;;;4996313;28;20447;-60
2023/10/30 10:26:13;;;;;;;0.30;0.20;;;19.40;99.90;;;;;;4982904;28;20486;-60
2023/10/30 10:28:39;;;;;;;0.30;0.30;;;19.40;99.90;;;;;;4976996;28;20374;-60
2023/10/30 10:31:05;;;;;;;0.30;0.20;;;19.40;99.90;;;;;;4976994;28;20386;-59
2023/10/30 10:33:33;;;;;;;0.50;0.50;;;19.40;99.90;;;;;;4976720;28;20890;-60
2023/10/30 10:36:01;;;;;;;0.30;0.30;;;19.30;99.90;;;;;;4990272;28;20199;-59
2023/10/30 10:38:27;;;;;;;0.30;0.20;;;19.20;99.90;;;;;;4996205;28;20737;-60
2023/10/30 10:40:53;;;;;;;0.30;0.20;;;19.00;99.90;;;;;;4996007;28;20534;-60
2023/10/30 10:43:24;;;;;;;0.30;0.20;;;18.60;99.90;;;;;;4997717;28;20443;-60
2023/10/30 10:45:52;;;;;;;0.30;0.20;;;18.40;99.90;;;;;;4994953;28;20446;-59
2023/10/30 10:48:25;;;;;;;0.30;0.20;;;18.20;99.90;;;;;;4980301;28;20408;-58
2023/10/30 10:50:53;;;;;;;0.30;0.30;;;18.10;99.90;;;;;;4978819;28;20503;-58
2023/10/30 10:53:19;;;;;;;0.30;0.30;;;18.00;99.90;;;;;;4990383;28;20419;-59
2023/10/30 10:55:48;;;;;;;0.30;0.30;;;17.90;99.90;;;;;;4997911;28;20447;-59
2023/10/30 10:58:45;;;;;;;0.30;0.30;;;17.80;99.90;;;;;;4980920;28;20416;-59
2023/10/30 11:01:19;;;;;;;0.30;0.30;;;17.70;99.90;;;;;;4959487;28;20481;-58
2023/10/30 11:03:45;;;;;;;0.30;0.20;;;17.50;99.90;;;;;;4977285;28;20403;-60
2023/10/30 11:06:13;;;;;;;0.30;0.20;;;17.40;99.90;;;;;;4976340;28;20467;-59
2023/10/30 11:08:50;;;;;;;0.30;0.30;;;17.30;99.90;;;;;;4977277;28;20457;-59
2023/10/30 11:11:47;;;;;;;0.30;0.30;;;17.20;99.90;;;;;;4976601;28;20414;-60
2023/10/30 11:14:32;;;;;;;0.30;0.20;;;17.10;99.90;;;;;;4989593;28;20412;-60
2023/10/30 11:17:05;;;;;;;0.30;0.20;;;17.00;99.90;;;;;;4978485;28;20427;-60
2023/10/30 11:19:32;;;;;;;0.30;0.30;;;17.00;99.90;;;;;;4977832;28;20953;-59
2023/10/30 11:22:01;;;;;;;0.30;0.30;;;16.90;99.90;;;;;;4992228;28;20432;-60
2023/10/30 11:24:38;;;;;;;0.30;0.20;;;16.90;99.90;;;;;;4995188;28;20437;-60
2023/10/30 11:27:25;;;;;;;0.30;0.20;;;17.00;99.90;;;;;;4995138;28;20989;-59
2023/10/30 11:30:01;;;;;;;0.30;0.30;;;17.00;99.90;;;;;;4995458;28;20405;-60
2023/10/30 11:32:32;;;;;;;0.30;0.30;;;17.00;99.90;;;;;;4982362;28;20489;-60
2023/10/30 11:34:59;;;;;;;3.60;1.23;;;17.00;99.90;;;;;;4994700;28;20441;-60
2023/10/30 11:37:27;;;;;;;0.30;0.20;;;16.90;99.90;;;;;;4995114;28;20403;-60
2023/10/30 11:39:54;;;;;;;0.30;0.30;;;16.90;99.90;;;;;;4962010;28;20458;-59
2023/10/30 11:42:22;;;;;;;0.30;0.20;;;16.80;99.90;;;;;;4982746;28;20455;-59
2023/10/30 11:44:52;;;;;;;0.50;0.50;;;16.80;99.90;;;;;;4975761;28;20509;-60
2023/10/30 11:47:24;;;;;;;0.37;0.37;;;16.80;99.90;;;;;;4975433;28;20478;-59
2023/10/30 11:49:55;;;;;;;0.30;0.20;;;16.70;99.90;;;;;;4975373;28;20469;-59
2023/10/30 11:52:20;;;;;;;0.30;0.30;;;16.60;99.90;;;;;;4986833;28;20935;-60
2023/10/30 11:54:48;;;;;;;0.30;0.30;;;16.60;99.90;;;;;;4988941;28;20396;-59
2023/10/30 11:57:14;;;;;;;0.30;0.20;;;16.60;99.90;;;;;;4982908;28;20587;-60
2023/10/30 11:59:40;;;;;;;0.30;0.30;;;16.50;99.90;;;;;;4994780;28;20753;-60
2023/10/30 12:02:06;;;;;;;0.30;0.20;;;16.50;99.90;;;;;;4992080;28;20388;-58
2023/10/30 12:04:32;;;;;;;0.30;0.30;;;16.50;99.90;;;;;;4974719;28;20277;-60
2023/10/30 12:06:58;;;;;;;0.30;0.30;;;16.50;99.90;;;;;;4974794;28;20265;-59
2023/10/30 12:09:25;;;;;;;0.30;0.30;;;16.50;99.90;;;;;;4985157;28;20471;-59
2023/10/30 12:11:51;;;;;;;0.30;0.20;;;16.50;99.90;;;;;;4984003;28;20172;-59
2023/10/30 12:14:20;;;;;;;0.30;0.30;;;16.50;99.90;;;;;;4968612;28;20764;-59
2023/10/30 12:16:50;;;;;;;0.30;0.30;;;16.60;99.90;;;;;;4993644;28;20466;-59
2023/10/30 12:19:22;;;;;;;0.30;0.30;;;16.60;99.90;;;;;;4980641;28;20438;-60
2023/10/30 12:21:48;;;;;;;0.30;0.20;;;16.80;99.90;;;;;;4992754;28;20444;-59
2023/10/30 12:24:18;;;;;;;0.30;0.30;;;16.90;99.90;;;;;;4984509;28;20397;-58
2023/10/30 12:26:46;;;;;;;0.30;0.30;;;16.90;99.90;;;;;;4974668;28;20451;-59
2023/10/30 12:29:19;;;;;;;0.30;0.20;;;17.00;99.90;;;;;;4974641;28;20453;-60
2023/10/30 12:31:49;;;;;;;0.30;0.20;;;17.10;99.90;;;;;;4974912;28;20898;-59
2023/10/30 12:34:16;;;;;;;0.30;0.20;;;17.10;99.90;;;;;;4974101;28;20428;-60
2023/10/30 12:36:42;;;;;;;0.30;0.20;;;17.10;99.90;;;;;;4982044;28;20404;-60
2023/10/30 12:39:21;;;;;;;0.30;0.30;;;17.10;99.90;;;;;;4994169;28;20399;-59
2023/10/30 12:41:55;;;;;;;0.30;0.20;;;17.00;99.90;;;;;;4993695;28;20850;-59
2023/10/30 12:44:23;;;;;;;0.30;0.20;;;17.00;99.90;;;;;;4987995;28;20518;-59
2023/10/30 12:46:49;;;;;;;0.30;0.30;;;17.10;99.90;;;;;;4974531;28;20471;-59
2023/10/30 12:49:15;;;;;;;0.30;0.30;;;17.10;99.90;;;;;;4974455;28;20487;-59
2023/10/30 12:51:41;;;;;;;0.30;0.30;;;17.10;99.90;;;;;;4974490;28;20614;-60
2023/10/30 12:54:07;;;;;;;0.30;0.20;;;17.00;99.90;;;;;;4973705;28;20243;-59
2023/10/30 12:56:33;;;;;;;0.30;0.30;;;17.00;99.90;;;;;;4973948;28;20457;-59
2023/10/30 12:58:59;;;;;;;0.30;0.30;;;17.10;99.90;;;;;;4974392;28;20655;-60
2023/10/30 13:01:24;;;;;;;0.30;0.30;;;17.10;99.90;;;;;;4974130;28;20209;-59
2023/10/30 13:03:50;;;;;;;0.30;0.30;;;17.10;99.90;;;;;;4986207;28;20422;-61
2023/10/30 13:06:16;;;;;;;0.40;0.40;;;17.20;99.90;;;;;;4978872;28;20202;-60
2023/10/30 13:08:42;;;;;;;0.30;0.20;;;17.20;99.90;;;;;;4975278;28;20586;-60
2023/10/30 13:11:08;;;;;;;0.30;0.20;;;17.30;99.90;;;;;;4987431;28;20190;-60
2023/10/30 13:13:34;;;;;;;0.30;0.20;;;17.30;99.90;;;;;;4977010;28;20496;-61
2023/10/30 13:16:00;;;;;;;0.30;0.20;;;17.30;99.90;;;;;;4976771;28;20453;-59
2023/10/30 13:18:26;;;;;;;0.30;0.30;;;17.30;99.90;;;;;;4981270;28;20181;-59
2023/10/30 13:20:52;;;;;;;0.30;0.30;;;17.30;99.90;;;;;;4993329;28;20484;-59
2023/10/30 13:23:21;;;;;;;0.30;0.30;;;17.30;99.90;;;;;;4979298;28;20936;-60
2023/10/30 13:25:49;;;;;;;0.30;0.30;;;17.40;99.90;;;;;;4975523;28;20701;-62
2023/10/30 13:28:17;;;;;;;0.30;0.30;;;17.30;99.90;;;;;;4992523;28;20422;-60
2023/10/30 13:30:43;;;;;;;0.30;0.30;;;17.30;99.90;;;;;;4993399;28;20460;-60
2023/10/30 13:33:09;;;;;;;0.30;0.20;;;17.30;99.90;;;;;;4989381;28;20423;-59
2023/10/30 13:35:34;;;;;;;0.30;0.20;;;17.30;99.90;;;;;;4973458;28;20441;-60
2023/10/30 13:38:00;;;;;;;0.30;0.30;;;17.30;99.90;;;;;;4973287;28;20221;-60
2023/10/30 13:40:25;;;;;;;0.30;0.20;;;17.30;99.90;;;;;;4974104;28;20243;-59
2023/10/30 13:42:51;;;;;;;0.30;0.20;;;17.30;99.90;;;;;;4975167;28;20646;-59
2023/10/30 13:45:16;;;;;;;0.30;0.30;;;17.30;99.90;;;;;;4978037;28;20203;-59
2023/10/30 13:47:42;;;;;;;0.30;0.20;;;17.20;99.90;;;;;;4976583;28;20182;-59
2023/10/30 13:50:08;;;;;;;0.30;0.30;;;17.20;99.90;;;;;;4976175;28;20185;-59
2023/10/30 13:52:35;;;;;;;0.30;0.30;;;17.20;99.90;;;;;;4990368;28;20248;-60
2023/10/30 13:55:01;;;;;;;0.30;0.20;;;17.20;99.90;;;;;;4990374;28;20227;-62
2023/10/30 13:57:26;;;;;;;0.30;0.20;;;17.10;99.90;;;;;;4978463;28;20457;-59
2023/10/30 13:59:52;;;;;;;0.30;0.30;;;17.10;99.90;;;;;;4977442;28;20441;-60
2023/10/30 14:02:17;;;;;;;0.30;0.30;;;17.10;99.90;;;;;;4978435;28;20173;-59
2023/10/30 14:04:43;;;;;;;0.50;0.37;;;17.10;99.90;;;;;;4992836;28;20606;-60
2023/10/30 14:07:09;;;;;;;0.30;0.30;;;17.10;99.90;;;;;;4991419;28;20205;-60
2023/10/30 14:09:35;;;;;;;0.30;0.30;;;17.10;99.90;;;;;;4960049;28;20270;-60
2023/10/30 14:12:01;;;;;;;0.30;0.30;;;17.00;99.90;;;;;;4989743;28;20462;-61
2023/10/30 14:14:26;;;;;;;0.30;0.20;;;16.90;99.90;;;;;;4993522;28;20205;-60
2023/10/30 14:16:52;;;;;;;0.30;0.30;;;16.90;99.90;;;;;;4996198;28;20208;-60
2023/10/30 14:19:18;;;;;;;0.30;0.30;;;16.90;99.90;;;;;;4996258;28;20260;-60
2023/10/30 14:21:44;;;;;;;0.30;0.30;;;16.90;99.90;;;;;;4986930;28;20233;-61
2023/10/30 14:24:11;;;;;;;0.30;0.20;;;16.90;99.90;;;;;;4976446;28;20430;-60
2023/10/30 14:26:38;;;;;;;0.50;0.40;;;16.90;99.90;;;;;;4992260;28;20220;-60
2023/10/30 14:29:04;;;;;;;0.30;0.20;;;16.90;99.90;;;;;;4994156;28;20402;-60
2023/10/30 14:31:30;;;;;;;0.30;0.20;;;16.90;99.90;;;;;;4995919;28;20830;-60
2023/10/30 14:33:55;;;;;;;0.30;0.20;;;16.90;99.90;;;;;;4989419;28;20420;-60
2023/10/30 14:36:22;;;;;;;4.33;0.93;;;16.80;99.90;;;;;;4976526;28;20452;-59
2023/10/30 14:38:48;;;;;;;0.30;0.27;;;16.80;99.90;;;;;;4985560;28;20184;-61
2023/10/30 14:41:14;;;;;;;0.30;0.20;;;16.80;99.90;;;;;;4983089;28;20426;-60
2023/10/30 14:43:40;;;;;;;0.30;0.20;;;16.70;99.90;;;;;;4994534;28;20418;-60
2023/10/30 14:46:05;;;;;;;0.30;0.30;;;16.60;99.90;;;;;;4981080;28;20200;-60
2023/10/30 14:48:32;;;;;;;3.43;0.40;;;16.60;99.90;;;;;;4992688;28;20428;-60
2023/10/30 14:50:58;;;;;;;0.30;0.30;;;16.60;99.90;;;;;;4988691;28;20185;-60
2023/10/30 14:53:23;;;;;;;0.30;0.30;;;16.50;99.90;;;;;;4985333;28;20507;-60
2023/10/30 14:55:52;;;;;;;0.30;0.30;;;16.40;99.90;;;;;;4987369;28;20190;-60
2023/10/30 14:58:18;;;;;;;0.30;0.30;;;16.40;99.90;;;;;;4979517;28;20185;-60
2023/10/30 15:00:43;;;;;;;0.30;0.20;;;16.40;99.90;;;;;;4965074;28;20425;-59
2023/10/30 15:03:09;;;;;;;0.30;0.20;;;16.30;99.90;;;;;;4984327;28;20255;-60
2023/10/30 15:05:34;;;;;;;0.50;0.40;;;16.40;99.90;;;;;;4981968;28;20746;-60
2023/10/30 15:08:00;;;;;;;0.30;0.20;;;16.40;99.90;;;;;;4975877;28;20192;-60
2023/10/30 15:10:27;;;;;;;0.30;0.30;;;16.30;99.90;;;;;;4977008;28;20330;-60
2023/10/30 15:12:56;;;;;;;0.30;0.20;;;16.30;99.90;;;;;;4976189;28;20643;-59
2023/10/30 15:15:22;;;;;;;0.50;0.50;;;16.30;99.90;;;;;;4985075;28;20448;-59
2023/10/30 15:17:48;;;;;;;0.30;0.30;;;16.30;99.90;;;;;;4993631;28;20422;-60
2023/10/30 15:20:14;;;;;;;0.30;0.30;;;16.30;99.90;;;;;;4978455;28;20773;-60
2023/10/30 15:22:40;;;;;;;0.30;0.20;;;16.30;99.90;;;;;;4983937;28;20636;-60
2023/10/30 15:25:06;;;;;;;0.30;0.20;;;16.30;99.90;;;;;;4985577;28;20441;-60
2023/10/30 15:27:33;;;;;;;0.30;0.30;;;16.30;99.90;;;;;;4975679;28;20541;-61
2023/10/30 15:30:00;;;;;;;0.33;0.30;;;16.30;99.90;;;;;;4975829;28;20437;-60
2023/10/30 15:32:26;;;;;;;0.30;0.30;;;16.20;99.90;;;;;;4976425;28;20865;-60
2023/10/30 15:34:51;;;;;;;0.30;0.20;;;16.20;99.90;;;;;;4980186;28;20492;-60
2023/10/30 15:37:17;;;;;;;0.30;0.27;;;16.20;99.90;;;;;;4975585;28;20181;-60
2023/10/30 15:39:43;;;;;;;0.30;0.30;;;16.20;99.90;;;;;;4975464;28;20221;-60
2023/10/30 15:42:09;;;;;;;0.30;0.20;;;16.10;99.90;;;;;;4980069;28;20180;-62
2023/10/30 15:44:35;;;;;;;0.30;0.30;;;16.10;99.90;;;;;;4991302;28;20495;-60
2023/10/30 15:47:00;;;;;;;0.30;0.20;;;16.10;99.90;;;;;;4991198;28;20252;-60
2023/10/30 15:49:26;;;;;;;0.30;0.30;;;16.10;99.90;;;;;;4978036;28;20643;-60
2023/10/30 15:51:51;;;;;;;0.30;0.20;;;16.00;99.90;;;;;;4992550;28;20694;-60
2023/10/30 15:54:18;;;;;;;0.30;0.20;;;16.00;99.90;;;;;;4991942;28;20577;-61
2023/10/30 15:56:44;;;;;;;0.30;0.30;;;15.90;99.90;;;;;;4980787;28;20600;-60
2023/10/30 15:59:10;;;;;;;0.30;0.20;;;15.90;99.90;;;;;;4975024;28;20453;-60
2023/10/30 16:01:35;;;;;;;0.30;0.20;;;15.80;99.90;;;;;;4990945;28;20530;-60
2023/10/30 16:04:01;;;;;;;0.30;0.30;;;15.80;99.90;;;;;;4980479;28;20894;-61
2023/10/30 16:06:28;;;;;;;0.30;0.30;;;15.70;99.90;;;;;;4978176;28;20208;-60
2023/10/30 16:08:54;;;;;;;0.30;0.30;;;15.70;99.90;;;;;;4985884;28;20180;-60
2023/10/30 16:11:19;;;;;;;0.30;0.30;;;15.60;99.90;;;;;;4993358;28;20399;-60
2023/10/30 16:13:45;;;;;;;0.30;0.30;;;15.60;99.90;;;;;;4991580;28;20176;-60
2023/10/30 16:16:11;;;;;;;0.30;0.20;;;15.50;99.90;;;;;;4991898;28;20194;-61
2023/10/30 16:18:36;;;;;;;0.30;0.20;;;15.50;99.90;;;;;;4988257;28;20180;-61
2023/10/30 16:21:02;;;;;;;0.30;0.30;;;15.40;99.90;;;;;;4978939;28;20181;-59
2023/10/30 16:23:29;;;;;;;0.30;0.20;;;15.40;99.90;;;;;;4993688;28;20235;-60
2023/10/30 16:25:55;;;;;;;0.30;0.27;;;15.40;99.90;;;;;;4990865;28;20262;-61
2023/10/30 16:28:21;;;;;;;0.30;0.20;;;15.40;99.90;;;;;;4982082;28;20431;-60
2023/10/30 16:30:47;;;;;;;0.30;0.30;;;15.30;99.90;;;;;;4991899;28;20402;-60
2023/10/30 16:33:12;;;;;;;0.30;0.30;;;15.30;99.90;;;;;;4989026;28;20177;-60
2023/10/30 16:35:38;;;;;;;0.40;0.40;;;15.30;99.90;;;;;;4974259;28;20202;-60
2023/10/30 16:38:03;;;;;;;0.30;0.30;;;15.20;99.90;;;;;;4979149;28;20230;-60
2023/10/30 16:40:29;;;;;;;0.30;0.30;;;15.20;99.90;;;;;;4978931;28;20187;-61
2023/10/30 16:42:55;;;;;;;0.40;0.30;;;15.20;99.90;;;;;;4975741;28;20180;-61
2023/10/30 16:45:20;;;;;;;0.30;0.30;;;15.20;99.90;;;;;;4986142;28;20200;-61
2023/10/30 16:47:46;;;;;;;0.30;0.30;;;15.20;99.90;;;;;;4974155;28;20246;-61
2023/10/30 16:50:11;;;;;;;0.30;0.20;;;15.10;99.90;;;;;;4980457;28;20212;-60
2023/10/30 16:52:37;;;;;;;0.33;0.33;;;15.10;99.90;;;;;;4989065;28;20255;-61